sensor_id;sensor_type;location;lat;lon;timestamp;pressure;altitude;pressure_sealevel;temperature;humidity
74680;BME280;63211;48.548;2.704;2024-01-15T00:01:37;100264.78;;;17.62;39.38
74680;BME280;63211;48.548;2.704;2024-01-15T00:04:03;100247.84;;;17.60;39.38
74680;BME280;63211;48.548;2.704;2024-01-15T00:06:30;100246.63;;;17.56;39.08
74680;BME280;63211;48.548;2.704;2024-01-15T00:08:58;100244.13;;;17.54;38.80
74680;BME280;63211;48.548;2.704;2024-01-15T00:11:25;100241.66;;;17.52;38.95
74680;BME280;63211;48.548;2.704;2024-01-15T00:13:53;100238.31;;;17.50;38.97
74680;BME280;63211;48.548;2.704;2024-01-15T00:16:19;100248.38;;;17.50;38.90
74680;BME280;63211;48.548;2.704;2024-01-15T00:18:46;100244.81;;;17.49;39.23
74680;BME280;63211;48.548;2.704;2024-01-15T00:21:13;100236.16;;;17.41;39.47
74680;BME280;63211;48.548;2.704;2024-01-15T00:23:42;100242.09;;;17.49;39.49
74680;BME280;63211;48.548;2.704;2024-01-15T00:26:08;100239.97;;;17.51;39.98
74680;BME280;63211;48.548;2.704;2024-01-15T00:28:35;100231.81;;;17.51;40.04
74680;BME280;63211;48.548;2.704;2024-01-15T00:31:04;100238.22;;;17.57;40.09
74680;BME280;63211;48.548;2.704;2024-01-15T00:33:30;100241.56;;;17.59;39.89
74680;BME280;63211;48.548;2.704;2024-01-15T00:35:58;100241.34;;;17.61;39.92
74680;BME280;63211;48.548;2.704;2024-01-15T00:38:25;100232.09;;;17.62;40.12
74680;BME280;63211;48.548;2.704;2024-01-15T00:40:51;100224.78;;;17.62;39.93
74680;BME280;63211;48.548;2.704;2024-01-15T00:43:18;100227.72;;;17.61;39.81
74680;BME280;63211;48.548;2.704;2024-01-15T00:45:45;100220.00;;;17.58;39.70
74680;BME280;63211;48.548;2.704;2024-01-15T00:48:13;100210.66;;;17.53;39.59
74680;BME280;63211;48.548;2.704;2024-01-15T00:50:39;100212.53;;;17.53;39.55
74680;BME280;63211;48.548;2.704;2024-01-15T00:53:06;100216.31;;;17.52;39.27
74680;BME280;63211;48.548;2.704;2024-01-15T00:55:32;100206.50;;;17.51;39.50
74680;BME280;63211;48.548;2.704;2024-01-15T00:57:59;100205.88;;;17.49;39.51
74680;BME280;63211;48.548;2.704;2024-01-15T01:00:25;100207.56;;;17.50;40.10
74680;BME280;63211;48.548;2.704;2024-01-15T01:02:52;100204.84;;;17.50;39.97
74680;BME280;63211;48.548;2.704;2024-01-15T01:05:20;100193.72;;;17.51;40.17
74680;BME280;63211;48.548;2.704;2024-01-15T01:07:47;100193.25;;;17.55;40.51
74680;BME280;63211;48.548;2.704;2024-01-15T01:10:13;100188.41;;;17.57;40.61
74680;BME280;63211;48.548;2.704;2024-01-15T01:12:40;100183.56;;;17.59;40.77
74680;BME280;63211;48.548;2.704;2024-01-15T01:15:06;100163.53;;;17.53;40.86
74680;BME280;63211;48.548;2.704;2024-01-15T01:17:33;100176.59;;;17.63;41.07
74680;BME280;63211;48.548;2.704;2024-01-15T01:20:00;100178.25;;;17.64;41.21
74680;BME280;63211;48.548;2.704;2024-01-15T01:22:30;100179.94;;;17.65;41.04
74680;BME280;63211;48.548;2.704;2024-01-15T01:24:57;100188.56;;;17.62;40.69
74680;BME280;63211;48.548;2.704;2024-01-15T01:27:23;100198.00;;;17.59;40.77
74680;BME280;63211;48.548;2.704;2024-01-15T01:29:50;100191.13;;;17.57;40.04
74680;BME280;63211;48.548;2.704;2024-01-15T01:32:17;100190.31;;;17.56;39.92
74680;BME280;63211;48.548;2.704;2024-01-15T01:34:43;100184.25;;;17.54;39.98
74680;BME280;63211;48.548;2.704;2024-01-15T01:37:10;100184.50;;;17.52;40.35
74680;BME280;63211;48.548;2.704;2024-01-15T01:39:40;100166.63;;;17.45;40.41
74680;BME280;63211;48.548;2.704;2024-01-15T01:42:07;100176.31;;;17.52;40.60
74680;BME280;63211;48.548;2.704;2024-01-15T01:44:34;100183.44;;;17.53;41.25
74680;BME280;63211;48.548;2.704;2024-01-15T01:47:01;100188.41;;;17.57;41.09
74680;BME280;63211;48.548;2.704;2024-01-15T01:49:28;100180.00;;;17.58;41.32
74680;BME280;63211;48.548;2.704;2024-01-15T01:51:57;100169.72;;;17.60;41.53
74680;BME280;63211;48.548;2.704;2024-01-15T01:54:24;100170.09;;;17.64;41.71
74680;BME280;63211;48.548;2.704;2024-01-15T01:56:53;100158.75;;;17.67;41.37
74680;BME280;63211;48.548;2.704;2024-01-15T01:59:19;100163.13;;;17.68;41.47
74680;BME280;63211;48.548;2.704;2024-01-15T02:01:48;100160.41;;;17.68;41.36
74680;BME280;63211;48.548;2.704;2024-01-15T02:04:15;100152.22;;;17.68;41.19
74680;BME280;63211;48.548;2.704;2024-01-15T02:06:42;100150.00;;;17.65;41.04
74680;BME280;63211;48.548;2.704;2024-01-15T02:09:09;100158.59;;;17.62;40.60
74680;BME280;63211;48.548;2.704;2024-01-15T02:11:36;100151.50;;;17.61;40.27
74680;BME280;63211;48.548;2.704;2024-01-15T02:14:04;100164.75;;;17.57;40.69
74680;BME280;63211;48.548;2.704;2024-01-15T02:16:31;100163.69;;;17.58;40.14
74680;BME280;63211;48.548;2.704;2024-01-15T02:18:57;100151.38;;;17.56;40.44
74680;BME280;63211;48.548;2.704;2024-01-15T02:21:24;100156.56;;;17.57;40.58
74680;BME280;63211;48.548;2.704;2024-01-15T02:23:55;100162.84;;;17.58;40.93
74680;BME280;63211;48.548;2.704;2024-01-15T02:26:22;100159.16;;;17.52;40.98
74680;BME280;63211;48.548;2.704;2024-01-15T02:28:49;100151.28;;;17.62;41.34
74680;BME280;63211;48.548;2.704;2024-01-15T02:31:16;100149.19;;;17.64;41.31
74680;BME280;63211;48.548;2.704;2024-01-15T02:33:43;100159.56;;;17.67;41.44
74680;BME280;63211;48.548;2.704;2024-01-15T02:36:11;100150.94;;;17.70;41.46
74680;BME280;63211;48.548;2.704;2024-01-15T02:38:38;100147.97;;;17.72;41.35
74680;BME280;63211;48.548;2.704;2024-01-15T02:41:06;100149.66;;;17.73;41.46
74680;BME280;63211;48.548;2.704;2024-01-15T02:43:32;100146.09;;;17.72;41.33
74680;BME280;63211;48.548;2.704;2024-01-15T02:45:59;100124.06;;;17.62;41.09
74680;BME280;63211;48.548;2.704;2024-01-15T02:48:25;100138.63;;;17.68;41.00
74680;BME280;63211;48.548;2.704;2024-01-15T02:50:52;100133.66;;;17.65;40.60
74680;BME280;63211;48.548;2.704;2024-01-15T02:53:18;100136.59;;;17.63;40.35
74680;BME280;63211;48.548;2.704;2024-01-15T02:55:45;100139.56;;;17.62;40.52
74680;BME280;63211;48.548;2.704;2024-01-15T02:58:13;100127.47;;;17.58;40.41
74680;BME280;63211;48.548;2.704;2024-01-15T03:00:39;100131.63;;;17.60;40.61
74680;BME280;63211;48.548;2.704;2024-01-15T03:03:06;100128.91;;;17.60;41.02
74680;BME280;63211;48.548;2.704;2024-01-15T03:05:32;100129.72;;;17.61;41.25
74680;BME280;63211;48.548;2.704;2024-01-15T03:07:59;100124.28;;;17.61;41.39
74680;BME280;63211;48.548;2.704;2024-01-15T03:10:26;100119.44;;;17.63;41.40
74680;BME280;63211;48.548;2.704;2024-01-15T03:12:52;100104.28;;;17.67;41.70
74680;BME280;63211;48.548;2.704;2024-01-15T03:15:20;100092.09;;;17.69;41.47
74680;BME280;63211;48.548;2.704;2024-01-15T03:17:47;100089.16;;;17.71;41.56
74680;BME280;63211;48.548;2.704;2024-01-15T03:20:13;100076.13;;;17.73;41.75
74680;BME280;63211;48.548;2.704;2024-01-15T03:22:40;100085.72;;;17.75;41.45
74680;BME280;63211;48.548;2.704;2024-01-15T03:25:07;100082.19;;;17.75;41.41
74680;BME280;63211;48.548;2.704;2024-01-15T03:27:34;100083.72;;;17.71;41.22
74680;BME280;63211;48.548;2.704;2024-01-15T03:30:00;100080.38;;;17.69;41.25
74680;BME280;63211;48.548;2.704;2024-01-15T03:32:29;100087.16;;;17.66;41.01
74680;BME280;63211;48.548;2.704;2024-01-15T03:34:55;100088.22;;;17.65;40.32
74680;BME280;63211;48.548;2.704;2024-01-15T03:37:22;100093.03;;;17.63;40.12
74680;BME280;63211;48.548;2.704;2024-01-15T03:39:48;100097.66;;;17.63;40.48
74680;BME280;63211;48.548;2.704;2024-01-15T03:42:15;100082.63;;;17.60;40.68
74680;BME280;63211;48.548;2.704;2024-01-15T03:44:41;100096.00;;;17.62;40.91
74680;BME280;63211;48.548;2.704;2024-01-15T03:47:08;100089.50;;;17.63;41.11
74680;BME280;63211;48.548;2.704;2024-01-15T03:49:36;100084.69;;;17.65;41.27
74680;BME280;63211;48.548;2.704;2024-01-15T03:52:03;100096.13;;;17.67;41.27
74680;BME280;63211;48.548;2.704;2024-01-15T03:54:30;100087.50;;;17.70;41.23
74680;BME280;63211;48.548;2.704;2024-01-15T03:56:56;100095.19;;;17.73;41.38
74680;BME280;63211;48.548;2.704;2024-01-15T03:59:23;100099.34;;;17.75;41.49
74680;BME280;63211;48.548;2.704;2024-01-15T04:01:49;100101.84;;;17.77;41.21
74680;BME280;63211;48.548;2.704;2024-01-15T04:04:16;100100.16;;;17.76;41.47
74680;BME280;63211;48.548;2.704;2024-01-15T04:06:44;100099.94;;;17.77;41.40
74680;BME280;63211;48.548;2.704;2024-01-15T04:09:12;100110.22;;;17.75;41.15
74680;BME280;63211;48.548;2.704;2024-01-15T04:11:38;100116.97;;;17.73;41.09
74680;BME280;63211;48.548;2.704;2024-01-15T04:14:05;100108.44;;;17.69;40.67
74680;BME280;63211;48.548;2.704;2024-01-15T04:16:31;100099.13;;;17.65;40.30
74680;BME280;63211;48.548;2.704;2024-01-15T04:18:58;100093.03;;;17.63;40.33
74680;BME280;63211;48.548;2.704;2024-01-15T04:21:24;100098.28;;;17.65;40.67
74680;BME280;63211;48.548;2.704;2024-01-15T04:23:52;100089.50;;;17.63;40.72
74680;BME280;63211;48.548;2.704;2024-01-15T04:26:19;100071.25;;;17.63;40.63
74680;BME280;63211;48.548;2.704;2024-01-15T04:28:45;100080.06;;;17.65;41.10
74680;BME280;63211;48.548;2.704;2024-01-15T04:31:21;100083.34;;;17.67;41.10
74680;BME280;63211;48.548;2.704;2024-01-15T04:33:47;100078.72;;;17.68;41.52
74680;BME280;63211;48.548;2.704;2024-01-15T04:36:14;100076.38;;;17.71;41.36
74680;BME280;63211;48.548;2.704;2024-01-15T04:38:40;100080.28;;;17.75;41.38
74680;BME280;63211;48.548;2.704;2024-01-15T04:41:11;100078.16;;;17.77;41.40
74680;BME280;63211;48.548;2.704;2024-01-15T04:43:37;100072.47;;;17.79;41.51
74680;BME280;63211;48.548;2.704;2024-01-15T04:46:05;100071.06;;;17.76;41.31
74680;BME280;63211;48.548;2.704;2024-01-15T04:48:32;100066.19;;;17.78;41.55
74680;BME280;63211;48.548;2.704;2024-01-15T04:50:59;100065.59;;;17.76;41.46
74680;BME280;63211;48.548;2.704;2024-01-15T04:53:26;100072.59;;;17.72;40.91
74680;BME280;63211;48.548;2.704;2024-01-15T04:55:52;100065.72;;;17.70;40.96
74680;BME280;63211;48.548;2.704;2024-01-15T04:58:20;100065.94;;;17.68;40.79
74680;BME280;63211;48.548;2.704;2024-01-15T05:00:50;100062.66;;;17.66;40.76
74680;BME280;63211;48.548;2.704;2024-01-15T05:03:16;100070.56;;;17.68;40.75
74680;BME280;63211;48.548;2.704;2024-01-15T05:05:43;100071.63;;;17.67;41.30
74680;BME280;63211;48.548;2.704;2024-01-15T05:08:09;100065.38;;;17.66;41.27
74680;BME280;63211;48.548;2.704;2024-01-15T05:10:36;100063.47;;;17.67;41.49
74680;BME280;63211;48.548;2.704;2024-01-15T05:13:03;100055.88;;;17.69;41.46
74680;BME280;63211;48.548;2.704;2024-01-15T05:15:31;100056.47;;;17.71;41.66
74680;BME280;63211;48.548;2.704;2024-01-15T05:17:57;100060.16;;;17.76;41.62
74680;BME280;63211;48.548;2.704;2024-01-15T05:20:24;100055.53;;;17.77;41.68
74680;BME280;63211;48.548;2.704;2024-01-15T05:22:51;100056.97;;;17.79;41.51
74680;BME280;63211;48.548;2.704;2024-01-15T05:25:17;100052.13;;;17.81;41.69
74680;BME280;63211;48.548;2.704;2024-01-15T05:27:44;100049.41;;;17.81;41.53
74680;BME280;63211;48.548;2.704;2024-01-15T05:30:11;100048.81;;;17.79;41.39
74680;BME280;63211;48.548;2.704;2024-01-15T05:32:39;100037.19;;;17.72;41.02
74680;BME280;63211;48.548;2.704;2024-01-15T05:35:06;100052.00;;;17.76;40.77
74680;BME280;63211;48.548;2.704;2024-01-15T05:37:33;100051.41;;;17.74;40.90
74680;BME280;63211;48.548;2.704;2024-01-15T05:39:59;100049.97;;;17.72;40.46
74680;BME280;63211;48.548;2.704;2024-01-15T05:42:26;100045.84;;;17.69;40.31
74680;BME280;63211;48.548;2.704;2024-01-15T05:44:55;100047.72;;;17.69;40.25
74680;BME280;63211;48.548;2.704;2024-01-15T05:47:24;100048.78;;;17.68;40.92
74680;BME280;63211;48.548;2.704;2024-01-15T05:49:52;100045.00;;;17.69;41.21
74680;BME280;63211;48.548;2.704;2024-01-15T05:52:18;100042.28;;;17.69;41.35
74680;BME280;63211;48.548;2.704;2024-01-15T05:54:46;100029.59;;;17.63;41.17
74680;BME280;63211;48.548;2.704;2024-01-15T05:57:12;100035.31;;;17.73;41.32
74680;BME280;63211;48.548;2.704;2024-01-15T05:59:39;100045.47;;;17.77;41.33
74680;BME280;63211;48.548;2.704;2024-01-15T06:02:06;100039.22;;;17.77;41.47
74680;BME280;63211;48.548;2.704;2024-01-15T06:04:32;100040.03;;;17.77;41.36
74680;BME280;63211;48.548;2.704;2024-01-15T06:07:00;100038.38;;;17.76;41.01
74680;BME280;63211;48.548;2.704;2024-01-15T06:09:26;100026.44;;;17.77;35.19
74680;BME280;63211;48.548;2.704;2024-01-15T06:11:53;100023.13;;;17.87;38.57
74680;BME280;63211;48.548;2.704;2024-01-15T06:14:20;100025.84;;;17.87;39.40
74680;BME280;63211;48.548;2.704;2024-01-15T06:16:46;100022.16;;;17.81;39.97
74680;BME280;63211;48.548;2.704;2024-01-15T06:19:14;100015.31;;;17.79;39.36
74680;BME280;63211;48.548;2.704;2024-01-15T06:21:41;100014.00;;;17.70;39.67
74680;BME280;63211;48.548;2.704;2024-01-15T06:24:09;100013.75;;;17.71;39.73
74680;BME280;63211;48.548;2.704;2024-01-15T06:26:36;100024.41;;;17.73;39.96
74680;BME280;63211;48.548;2.704;2024-01-15T06:29:02;100019.19;;;17.71;39.85
74680;BME280;63211;48.548;2.704;2024-01-15T06:31:29;100023.81;;;17.71;40.16
74680;BME280;63211;48.548;2.704;2024-01-15T06:33:55;100012.94;;;17.71;40.36
74680;BME280;63211;48.548;2.704;2024-01-15T06:36:22;100022.75;;;17.72;40.45
74680;BME280;63211;48.548;2.704;2024-01-15T06:38:48;100024.75;;;17.76;40.62
74680;BME280;63211;48.548;2.704;2024-01-15T06:41:16;100015.53;;;17.77;40.37
74680;BME280;63211;48.548;2.704;2024-01-15T06:43:43;100027.03;;;17.79;40.50
74680;BME280;63211;48.548;2.704;2024-01-15T06:46:09;100015.06;;;17.80;38.62
74680;BME280;63211;48.548;2.704;2024-01-15T06:48:36;100020.03;;;17.83;40.30
74680;BME280;63211;48.548;2.704;2024-01-15T06:51:03;100017.31;;;17.83;38.97
74680;BME280;63211;48.548;2.704;2024-01-15T06:53:30;100023.59;;;17.84;40.37
74680;BME280;63211;48.548;2.704;2024-01-15T06:55:56;100014.44;;;18.02;38.58
74680;BME280;63211;48.548;2.704;2024-01-15T06:58:24;100024.38;;;18.08;38.96
74680;BME280;63211;48.548;2.704;2024-01-15T07:00:51;100024.94;;;18.22;39.47
74680;BME280;63211;48.548;2.704;2024-01-15T07:03:17;100013.22;;;18.21;39.77
74680;BME280;63211;48.548;2.704;2024-01-15T07:05:44;100029.44;;;18.28;39.35
74680;BME280;63211;48.548;2.704;2024-01-15T07:08:10;100028.44;;;18.34;38.68
74680;BME280;63211;48.548;2.704;2024-01-15T07:10:37;100026.34;;;18.24;38.88
74680;BME280;63211;48.548;2.704;2024-01-15T07:13:03;100025.41;;;18.18;38.80
74680;BME280;63211;48.548;2.704;2024-01-15T07:15:32;100015.00;;;18.15;38.49
74680;BME280;63211;48.548;2.704;2024-01-15T07:17:59;100026.38;;;18.12;38.81
74680;BME280;63211;48.548;2.704;2024-01-15T07:20:25;100030.50;;;18.15;38.38
74680;BME280;63211;48.548;2.704;2024-01-15T07:22:52;100034.88;;;18.16;38.28
74680;BME280;63211;48.548;2.704;2024-01-15T07:25:18;100028.97;;;18.19;38.15
74680;BME280;63211;48.548;2.704;2024-01-15T07:27:45;100027.31;;;18.18;38.21
74680;BME280;63211;48.548;2.704;2024-01-15T07:30:13;100039.38;;;18.22;37.86
74680;BME280;63211;48.548;2.704;2024-01-15T07:32:41;100035.59;;;18.23;37.82
74680;BME280;63211;48.548;2.704;2024-01-15T07:35:08;100034.53;;;18.24;37.92
74680;BME280;63211;48.548;2.704;2024-01-15T07:37:35;100042.94;;;18.23;37.90
74680;BME280;63211;48.548;2.704;2024-01-15T07:40:02;100031.44;;;18.20;37.93
74680;BME280;63211;48.548;2.704;2024-01-15T07:42:31;100020.19;;;18.17;37.98
74680;BME280;63211;48.548;2.704;2024-01-15T07:44:57;100025.88;;;18.15;37.85
74680;BME280;63211;48.548;2.704;2024-01-15T07:47:24;100032.66;;;18.13;37.88
74680;BME280;63211;48.548;2.704;2024-01-15T07:49:52;99987.34;;;17.83;37.89
74680;BME280;63211;48.548;2.704;2024-01-15T07:52:19;100038.31;;;18.11;37.89
74680;BME280;63211;48.548;2.704;2024-01-15T07:54:46;100031.97;;;18.06;37.75
74680;BME280;63211;48.548;2.704;2024-01-15T07:57:13;100036.09;;;18.08;37.57
74680;BME280;63211;48.548;2.704;2024-01-15T07:59:39;100043.53;;;18.13;37.59
74680;BME280;63211;48.548;2.704;2024-01-15T08:02:06;100038.91;;;18.13;37.74
74680;BME280;63211;48.548;2.704;2024-01-15T08:04:33;100043.31;;;18.14;37.46
74680;BME280;63211;48.548;2.704;2024-01-15T08:07:01;100047.44;;;18.17;37.42
74680;BME280;63211;48.548;2.704;2024-01-15T08:09:28;100049.09;;;18.18;37.56
74680;BME280;63211;48.548;2.704;2024-01-15T08:11:54;100053.50;;;18.19;37.19
74680;BME280;63211;48.548;2.704;2024-01-15T08:14:21;100069.00;;;18.18;37.35
74680;BME280;63211;48.548;2.704;2024-01-15T08:16:48;100079.66;;;18.20;37.40
74680;BME280;63211;48.548;2.704;2024-01-15T08:19:14;100082.63;;;18.18;37.30
74680;BME280;63211;48.548;2.704;2024-01-15T08:21:41;100088.31;;;18.17;37.33
74680;BME280;63211;48.548;2.704;2024-01-15T08:24:09;100077.66;;;18.15;37.30
74680;BME280;63211;48.548;2.704;2024-01-15T08:26:35;100071.84;;;18.12;37.27
74680;BME280;63211;48.548;2.704;2024-01-15T08:29:02;100070.19;;;18.11;37.44
74680;BME280;63211;48.548;2.704;2024-01-15T08:31:28;100078.88;;;18.08;37.45
74680;BME280;63211;48.548;2.704;2024-01-15T08:33:55;100078.88;;;18.08;37.41
74680;BME280;63211;48.548;2.704;2024-01-15T08:36:23;100084.88;;;18.10;37.21
74680;BME280;63211;48.548;2.704;2024-01-15T08:38:50;100087.59;;;18.10;37.28
74680;BME280;63211;48.548;2.704;2024-01-15T08:41:18;100082.97;;;18.10;37.16
74680;BME280;63211;48.548;2.704;2024-01-15T08:43:45;100091.16;;;18.10;37.00
74680;BME280;63211;48.548;2.704;2024-01-15T08:46:11;100106.44;;;18.11;37.09
74680;BME280;63211;48.548;2.704;2024-01-15T08:48:38;100095.53;;;18.11;36.99
74680;BME280;63211;48.548;2.704;2024-01-15T08:51:05;100105.13;;;18.14;37.09
74680;BME280;63211;48.548;2.704;2024-01-15T08:53:31;100110.34;;;18.15;36.90
74680;BME280;63211;48.548;2.704;2024-01-15T08:55:58;100105.72;;;18.16;36.86
74680;BME280;63211;48.548;2.704;2024-01-15T08:58:26;100099.44;;;18.15;36.97
74680;BME280;63211;48.548;2.704;2024-01-15T09:00:52;100109.28;;;18.16;36.98
74680;BME280;63211;48.548;2.704;2024-01-15T09:03:19;100109.50;;;18.15;37.03
74680;BME280;63211;48.548;2.704;2024-01-15T09:05:45;100108.94;;;18.13;36.91
74680;BME280;63211;48.548;2.704;2024-01-15T09:08:14;100113.19;;;18.09;37.16
74680;BME280;63211;48.548;2.704;2024-01-15T09:10:40;100115.34;;;18.07;37.43
74680;BME280;63211;48.548;2.704;2024-01-15T09:13:07;100122.09;;;18.04;37.05
74680;BME280;63211;48.548;2.704;2024-01-15T09:15:34;100130.25;;;18.04;37.28
74680;BME280;63211;48.548;2.704;2024-01-15T09:18:01;100119.38;;;18.04;36.94
74680;BME280;63211;48.548;2.704;2024-01-15T09:20:28;100119.59;;;18.03;37.01
74680;BME280;63211;48.548;2.704;2024-01-15T09:22:54;100133.59;;;18.06;36.93
74680;BME280;63211;48.548;2.704;2024-01-15T09:25:21;100124.81;;;18.04;36.66
74680;BME280;63211;48.548;2.704;2024-01-15T09:27:47;100137.69;;;18.09;36.75
74680;BME280;63211;48.548;2.704;2024-01-15T09:30:14;100141.03;;;18.11;36.66
74680;BME280;63211;48.548;2.704;2024-01-15T09:32:42;100139.97;;;18.12;36.63
74680;BME280;63211;48.548;2.704;2024-01-15T09:35:09;100144.81;;;18.10;36.50
74680;BME280;63211;48.548;2.704;2024-01-15T09:37:35;100144.34;;;18.13;36.78
74680;BME280;63211;48.548;2.704;2024-01-15T09:40:03;100146.81;;;18.14;36.47
74680;BME280;63211;48.548;2.704;2024-01-15T09:42:30;100143.03;;;18.15;36.77
74680;BME280;63211;48.548;2.704;2024-01-15T09:44:57;100144.09;;;18.14;36.62
74680;BME280;63211;48.548;2.704;2024-01-15T09:47:24;100143.50;;;18.12;36.67
74680;BME280;63211;48.548;2.704;2024-01-15T09:49:52;100143.41;;;18.07;36.76
74680;BME280;63211;48.548;2.704;2024-01-15T09:52:19;100157.88;;;18.08;36.88
74680;BME280;63211;48.548;2.704;2024-01-15T09:54:46;100145.19;;;18.02;37.10
74680;BME280;63211;48.548;2.704;2024-01-15T09:57:13;100145.78;;;18.04;36.76
74680;BME280;63211;48.548;2.704;2024-01-15T09:59:43;100144.13;;;18.03;36.87
74680;BME280;63211;48.548;2.704;2024-01-15T10:02:12;100139.50;;;18.03;36.62
74680;BME280;63211;48.548;2.704;2024-01-15T10:04:40;100148.88;;;18.07;36.85
74680;BME280;63211;48.548;2.704;2024-01-15T10:07:12;100152.66;;;18.06;36.73
74680;BME280;63211;48.548;2.704;2024-01-15T10:09:41;100157.03;;;18.07;36.65
74680;BME280;63211;48.548;2.704;2024-01-15T10:12:08;100163.06;;;18.09;36.75
74680;BME280;63211;48.548;2.704;2024-01-15T10:14:35;100158.19;;;18.11;36.56
74680;BME280;63211;48.548;2.704;2024-01-15T10:17:13;100153.34;;;18.13;36.46
74680;BME280;63211;48.548;2.704;2024-01-15T10:19:40;100154.19;;;18.14;36.49
74680;BME280;63211;48.548;2.704;2024-01-15T10:22:09;100150.50;;;18.08;36.47
74680;BME280;63211;48.548;2.704;2024-01-15T10:24:36;100161.03;;;18.16;36.30
74680;BME280;63211;48.548;2.704;2024-01-15T10:27:06;100157.50;;;18.16;36.44
74680;BME280;63211;48.548;2.704;2024-01-15T10:29:33;100154.19;;;18.14;36.63
74680;BME280;63211;48.548;2.704;2024-01-15T10:31:59;100151.91;;;18.11;36.76
74680;BME280;63211;48.548;2.704;2024-01-15T10:34:27;100161.16;;;18.10;36.62
74680;BME280;63211;48.548;2.704;2024-01-15T10:36:54;100146.59;;;18.04;36.82
74680;BME280;63211;48.548;2.704;2024-01-15T10:39:23;100158.09;;;18.06;36.75
74680;BME280;63211;48.548;2.704;2024-01-15T10:41:49;100159.75;;;18.07;36.77
74680;BME280;63211;48.548;2.704;2024-01-15T10:44:16;100158.94;;;18.07;36.74
74680;BME280;63211;48.548;2.704;2024-01-15T10:46:44;100163.31;;;18.08;36.64
74680;BME280;63211;48.548;2.704;2024-01-15T10:49:12;100158.44;;;18.10;36.58
74680;BME280;63211;48.548;2.704;2024-01-15T10:51:39;100143.06;;;18.04;36.63
74680;BME280;63211;48.548;2.704;2024-01-15T10:54:09;100154.88;;;18.09;36.44
74680;BME280;63211;48.548;2.704;2024-01-15T10:56:39;100168.03;;;18.12;36.53
74680;BME280;63211;48.548;2.704;2024-01-15T10:59:06;100161.50;;;18.13;36.48
74680;BME280;63211;48.548;2.704;2024-01-15T11:01:35;100170.06;;;18.17;36.26
74680;BME280;63211;48.548;2.704;2024-01-15T11:04:01;100165.44;;;18.17;36.36
74680;BME280;63211;48.548;2.704;2024-01-15T11:06:41;100156.19;;;18.18;36.48
74680;BME280;63211;48.548;2.704;2024-01-15T11:09:08;100149.91;;;18.18;36.58
74680;BME280;63211;48.548;2.704;2024-01-15T11:11:35;100150.16;;;18.16;36.46
74680;BME280;63211;48.548;2.704;2024-01-15T11:14:03;100149.78;;;18.13;36.50
74680;BME280;63211;48.548;2.704;2024-01-15T11:16:53;100150.84;;;18.12;36.51
74680;BME280;63211;48.548;2.704;2024-01-15T11:19:21;100154.06;;;18.09;36.68
74680;BME280;63211;48.548;2.704;2024-01-15T11:21:48;100150.50;;;18.08;36.71
74680;BME280;63211;48.548;2.704;2024-01-15T11:24:38;100158.66;;;18.08;36.67
74680;BME280;63211;48.548;2.704;2024-01-15T11:27:07;100156.53;;;18.10;36.73
74680;BME280;63211;48.548;2.704;2024-01-15T11:29:36;100103.03;;;17.81;36.49
74680;BME280;63211;48.548;2.704;2024-01-15T11:32:07;100151.09;;;18.10;36.51
74680;BME280;63211;48.548;2.704;2024-01-15T11:34:51;100146.22;;;18.12;36.57
74680;BME280;63211;48.548;2.704;2024-01-15T11:37:17;100143.28;;;18.14;36.35
74680;BME280;63211;48.548;2.704;2024-01-15T11:39:44;100147.44;;;18.16;36.35
74680;BME280;63211;48.548;2.704;2024-01-15T11:42:12;100138.19;;;18.17;36.43
74680;BME280;63211;48.548;2.704;2024-01-15T11:44:41;100137.13;;;18.18;36.48
74680;BME280;63211;48.548;2.704;2024-01-15T11:47:08;100137.13;;;18.18;36.45
74680;BME280;63211;48.548;2.704;2024-01-15T11:49:58;100133.34;;;18.19;36.61
74680;BME280;63211;48.548;2.704;2024-01-15T11:52:25;100094.38;;;17.84;36.42
74680;BME280;63211;48.548;2.704;2024-01-15T11:54:55;100152.88;;;18.16;36.46
74680;BME280;63211;48.548;2.704;2024-01-15T11:57:35;100150.38;;;18.15;36.59
74680;BME280;63211;48.548;2.704;2024-01-15T12:00:09;100147.06;;;18.13;36.41
74680;BME280;63211;48.548;2.704;2024-01-15T12:02:35;100157.59;;;18.09;36.72
74680;BME280;63211;48.548;2.704;2024-01-15T12:05:02;100149.44;;;18.09;36.40
74680;BME280;63211;48.548;2.704;2024-01-15T12:07:29;100162.00;;;18.10;36.75
74680;BME280;63211;48.548;2.704;2024-01-15T12:09:56;100157.97;;;18.13;36.46
74680;BME280;63211;48.548;2.704;2024-01-15T12:12:27;100156.91;;;18.14;36.46
74680;BME280;63211;48.548;2.704;2024-01-15T12:14:57;100148.50;;;18.15;36.42
74680;BME280;63211;48.548;2.704;2024-01-15T12:17:26;100151.81;;;18.17;36.36
74680;BME280;63211;48.548;2.704;2024-01-15T12:19:52;100157.03;;;18.19;36.49
74680;BME280;63211;48.548;2.704;2024-01-15T12:22:19;100151.34;;;18.20;36.35
74680;BME280;63211;48.548;2.704;2024-01-15T12:24:45;100146.47;;;18.23;36.35
74680;BME280;63211;48.548;2.704;2024-01-15T12:27:12;100143.75;;;18.23;36.25
74680;BME280;63211;48.548;2.704;2024-01-15T12:29:39;100159.88;;;18.24;36.54
74680;BME280;63211;48.548;2.704;2024-01-15T12:32:05;100145.66;;;18.22;36.38
74680;BME280;63211;48.548;2.704;2024-01-15T12:34:34;100151.34;;;18.20;36.44
74680;BME280;63211;48.548;2.704;2024-01-15T12:37:01;100146.34;;;18.17;36.59
74680;BME280;63211;48.548;2.704;2024-01-15T12:39:27;100156.66;;;18.15;36.62
74680;BME280;63211;48.548;2.704;2024-01-15T12:41:54;100151.44;;;18.14;36.74
74680;BME280;63211;48.548;2.704;2024-01-15T12:44:21;100153.34;;;18.13;36.63
74680;BME280;63211;48.548;2.704;2024-01-15T12:46:48;100154.41;;;18.12;36.77
74680;BME280;63211;48.548;2.704;2024-01-15T12:49:14;100008.28;;;17.25;36.69
74680;BME280;63211;48.548;2.704;2024-01-15T12:51:42;100152.28;;;18.14;36.54